createdAt,value
2022-10-11T00:02:26.196Z,14.60
2022-10-11T00:04:53.903Z,14.80
2022-10-11T00:07:21.613Z,15.00
2022-10-11T00:09:48.974Z,15.10
2022-10-11T00:12:16.352Z,15.20
2022-10-11T00:14:43.694Z,15.20
2022-10-11T00:17:11.093Z,15.20
2022-10-11T00:19:38.481Z,15.20
2022-10-11T00:22:05.852Z,15.20
2022-10-11T00:24:33.243Z,15.20
2022-10-11T00:27:00.561Z,15.20
2022-10-11T00:29:27.955Z,15.10
2022-10-11T00:31:55.315Z,14.80
2022-10-11T00:34:22.932Z,14.30
2022-10-11T00:36:50.320Z,14.20
2022-10-11T00:39:17.783Z,14.10
2022-10-11T00:41:45.193Z,13.80
2022-10-11T00:44:21.944Z,13.60
2022-10-11T00:47:00.118Z,13.50
2022-10-11T00:49:45.534Z,13.60
2022-10-11T00:52:37.229Z,13.60
2022-10-11T00:55:12.428Z,13.40
2022-10-11T00:57:43.228Z,13.20
2022-10-11T01:00:13.705Z,13.20
2022-10-11T01:02:42.062Z,13.20
2022-10-11T01:05:28.640Z,13.20
2022-10-11T01:08:02.037Z,13.10
2022-10-11T01:10:29.643Z,13.10
2022-10-11T01:13:24.640Z,13.10
2022-10-11T01:16:16.084Z,13.00
2022-10-11T01:18:49.541Z,13.00
2022-10-11T01:21:39.651Z,12.90
2022-10-11T01:24:24.780Z,12.90
2022-10-11T01:27:19.109Z,12.90
2022-10-11T01:30:10.957Z,12.90
2022-10-11T01:32:44.188Z,12.90
2022-10-11T01:35:32.217Z,12.80
2022-10-11T01:38:12.074Z,12.70
2022-10-11T01:41:12.935Z,12.70
2022-10-11T01:43:42.302Z,12.70
2022-10-11T01:46:11.293Z,12.70
2022-10-11T01:48:54.239Z,12.70
2022-10-11T01:51:25.059Z,12.70
2022-10-11T01:54:18.645Z,12.70
2022-10-11T01:57:03.896Z,12.60
2022-10-11T01:59:57.244Z,12.50
2022-10-11T02:02:46.880Z,12.50
2022-10-11T02:05:35.211Z,12.50
2022-10-11T02:08:09.385Z,12.40
2022-10-11T02:11:06.051Z,12.80
2022-10-11T02:13:41.114Z,12.90
2022-10-11T02:16:14.530Z,12.90
2022-10-11T02:18:50.038Z,12.80
2022-10-11T02:21:20.627Z,12.80
2022-10-11T02:24:12.812Z,12.80
2022-10-11T02:26:44.029Z,12.70
2022-10-11T02:29:14.326Z,12.50
2022-10-11T02:31:43.390Z,12.40
2022-10-11T02:34:33.175Z,12.40
2022-10-11T02:37:20.221Z,12.50
2022-10-11T02:40:02.161Z,12.40
2022-10-11T02:42:36.514Z,12.40
2022-10-11T02:45:12.472Z,12.40
2022-10-11T02:47:41.532Z,12.40
2022-10-11T02:50:11.151Z,12.40
2022-10-11T02:52:38.783Z,12.50
2022-10-11T02:55:07.155Z,12.60
2022-10-11T02:57:34.507Z,12.60
2022-10-11T03:00:02.008Z,12.50
2022-10-11T03:02:29.432Z,12.40
2022-10-11T03:04:57.100Z,12.30
2022-10-11T03:07:24.528Z,12.30
2022-10-11T03:09:51.894Z,12.30
2022-10-11T03:12:19.455Z,12.20
2022-10-11T03:14:46.779Z,12.20
2022-10-11T03:17:35.073Z,12.10
2022-10-11T03:20:01.583Z,12.20
2022-10-11T03:22:28.948Z,12.20
2022-10-11T03:25:00.988Z,12.20
2022-10-11T03:27:31.158Z,12.20
2022-10-11T03:29:58.904Z,12.20
2022-10-11T03:32:26.315Z,12.20
2022-10-11T03:34:53.781Z,12.20
2022-10-11T03:37:21.167Z,12.30
2022-10-11T03:39:48.808Z,12.30
2022-10-11T03:42:16.859Z,12.20
2022-10-11T03:44:44.252Z,12.20
2022-10-11T03:47:12.789Z,12.10
2022-10-11T03:49:43.628Z,12.10
2022-10-11T03:52:11.803Z,12.40
2022-10-11T03:54:39.169Z,12.30
2022-10-11T03:57:06.979Z,12.30
2022-10-11T03:59:34.324Z,12.20
2022-10-11T04:02:01.751Z,12.10
2022-10-11T04:04:29.629Z,12.10
2022-10-11T04:06:57.027Z,12.10
2022-10-11T04:09:24.431Z,12.00
2022-10-11T04:11:51.819Z,11.90
2022-10-11T04:14:19.206Z,11.80
2022-10-11T04:16:46.629Z,11.60
2022-10-11T04:19:13.992Z,11.70
2022-10-11T04:21:41.450Z,11.60
2022-10-11T04:24:11.778Z,11.60
2022-10-11T04:26:39.170Z,11.50
2022-10-11T04:29:06.529Z,11.80
2022-10-11T04:31:33.977Z,11.80
2022-10-11T04:34:01.443Z,11.90
2022-10-11T04:36:28.848Z,11.90
2022-10-11T04:38:57.272Z,11.60
2022-10-11T04:41:24.600Z,11.80
2022-10-11T04:43:52.017Z,12.10
2022-10-11T04:46:19.353Z,12.20
2022-10-11T04:48:46.713Z,12.20
2022-10-11T04:51:14.172Z,12.20
2022-10-11T04:53:41.592Z,12.10
2022-10-11T04:56:14.959Z,12.00
2022-10-11T04:58:42.892Z,11.90
2022-10-11T05:01:10.983Z,11.80
2022-10-11T05:03:38.520Z,11.70
2022-10-11T05:06:06.359Z,11.70
2022-10-11T05:08:34.192Z,11.60
2022-10-11T05:11:05.053Z,11.50
2022-10-11T05:13:33.661Z,11.60
2022-10-11T05:16:03.345Z,11.50
2022-10-11T05:18:33.106Z,11.60
2022-10-11T05:21:04.889Z,11.60
2022-10-11T05:23:34.081Z,11.50
2022-10-11T05:26:02.838Z,11.50
2022-10-11T05:28:30.783Z,11.60
2022-10-11T05:30:58.453Z,11.70
2022-10-11T05:33:26.125Z,11.60
2022-10-11T05:38:21.601Z,11.60
2022-10-11T05:40:49.249Z,11.70
2022-10-11T05:43:16.675Z,11.70
2022-10-11T05:45:45.034Z,11.80
2022-10-11T05:48:12.640Z,11.80
2022-10-11T05:50:41.024Z,11.90
2022-10-11T05:53:08.434Z,11.90
2022-10-11T05:55:40.645Z,12.10
2022-10-11T05:58:10.222Z,12.10
2022-10-11T06:00:38.036Z,12.10
2022-10-11T06:03:07.895Z,12.10
2022-10-11T06:05:35.936Z,12.00
2022-10-11T06:08:06.041Z,12.20
2022-10-11T06:10:33.471Z,12.20
2022-10-11T06:13:01.118Z,12.40
2022-10-11T06:15:28.659Z,12.40
2022-10-11T06:17:56.366Z,12.60
2022-10-11T06:20:23.807Z,12.90
2022-10-11T06:22:51.168Z,13.10
2022-10-11T06:25:18.513Z,13.20
2022-10-11T06:27:45.906Z,13.40
2022-10-11T06:30:14.083Z,14.00
2022-10-11T06:32:41.430Z,15.20
2022-10-11T06:35:09.090Z,16.10
2022-10-11T06:37:36.574Z,17.20
2022-10-11T06:40:04.367Z,17.80
2022-10-11T06:42:31.802Z,17.10
2022-10-11T06:44:59.170Z,16.30
2022-10-11T06:47:26.833Z,15.70
2022-10-11T06:49:54.480Z,15.30
2022-10-11T06:52:22.003Z,15.10
2022-10-11T06:54:49.536Z,15.00
2022-10-11T06:57:16.912Z,15.00
2022-10-11T06:59:44.353Z,14.90
2022-10-11T07:02:11.825Z,14.90
2022-10-11T07:04:39.394Z,15.00
2022-10-11T07:07:06.777Z,15.00
2022-10-11T07:09:34.750Z,15.00
2022-10-11T07:12:02.186Z,15.00
2022-10-11T07:14:29.840Z,15.20
2022-10-11T07:16:58.086Z,15.30
2022-10-11T07:19:25.527Z,15.40
2022-10-11T07:21:52.875Z,15.60
2022-10-11T07:24:20.452Z,15.70
2022-10-11T07:26:47.841Z,15.90
2022-10-11T07:29:15.221Z,16.10
2022-10-11T07:31:43.685Z,16.20
2022-10-11T07:34:11.541Z,16.20
2022-10-11T07:36:38.992Z,16.30
2022-10-11T07:39:07.480Z,16.50
2022-10-11T07:41:35.259Z,16.60
2022-10-11T07:44:03.301Z,16.70
2022-10-11T07:46:30.833Z,16.80
2022-10-11T07:48:58.426Z,16.90
2022-10-11T07:51:26.393Z,17.00
2022-10-11T07:53:56.009Z,17.10
2022-10-11T07:56:26.902Z,17.10
2022-10-11T07:58:57.398Z,17.30
2022-10-11T08:01:25.685Z,17.20
2022-10-11T08:03:54.144Z,17.40
2022-10-11T08:06:23.461Z,17.60
2022-10-11T08:08:50.817Z,17.60
2022-10-11T08:11:35.847Z,17.60
2022-10-11T08:14:08.582Z,17.70
2022-10-11T08:16:36.598Z,17.80
2022-10-11T08:19:04.304Z,17.90
2022-10-11T08:21:32.310Z,17.90
2022-10-11T08:24:01.327Z,18.00
2022-10-11T08:26:28.783Z,18.00
2022-10-11T08:28:56.313Z,18.10
2022-10-11T08:31:23.779Z,18.40
2022-10-11T08:33:51.182Z,18.60
2022-10-11T08:36:18.519Z,18.70
2022-10-11T08:38:45.965Z,18.70
2022-10-11T08:41:28.378Z,18.50
2022-10-11T08:44:17.454Z,18.50
2022-10-11T08:46:51.371Z,18.60
2022-10-11T08:49:25.748Z,18.70
2022-10-11T08:52:00.564Z,18.80
2022-10-11T08:54:57.985Z,19.00
2022-10-11T08:57:28.716Z,19.20
2022-10-11T09:00:00.701Z,19.10
2022-10-11T09:03:07.048Z,18.90
2022-10-11T09:05:47.685Z,18.90
2022-10-11T09:08:25.505Z,18.90
2022-10-11T09:10:57.286Z,18.90
2022-10-11T09:13:43.897Z,19.00
2022-10-11T09:16:44.021Z,19.00
2022-10-11T09:19:29.636Z,19.10
2022-10-11T09:22:02.777Z,19.30
2022-10-11T09:24:54.558Z,19.30
2022-10-11T09:27:57.310Z,19.30
2022-10-11T09:30:20.174Z,19.60
2022-10-11T09:33:08.605Z,19.60
2022-10-11T09:35:49.689Z,19.60
2022-10-11T09:38:38.708Z,19.60
2022-10-11T09:41:38.474Z,19.80
2022-10-11T09:44:07.615Z,19.90
2022-10-11T09:46:40.384Z,20.10
2022-10-11T09:49:12.199Z,20.10
2022-10-11T09:51:43.562Z,20.20
2022-10-11T09:54:11.012Z,20.20
2022-10-11T09:56:43.841Z,20.30
2022-10-11T09:59:34.432Z,20.30
2022-10-11T10:02:14.334Z,20.50
2022-10-11T10:04:53.831Z,20.50
2022-10-11T10:07:21.397Z,20.60
2022-10-11T10:09:49.735Z,20.80
2022-10-11T10:12:29.350Z,20.80
2022-10-11T10:15:07.160Z,20.60
2022-10-11T10:17:36.143Z,20.70
2022-10-11T10:20:05.734Z,20.60
2022-10-11T10:22:35.659Z,20.60
2022-10-11T10:25:07.960Z,20.70
2022-10-11T10:27:35.585Z,21.10
2022-10-11T10:30:16.220Z,21.10
2022-10-11T10:32:48.215Z,21.10
2022-10-11T10:35:34.533Z,21.00
2022-10-11T10:38:40.410Z,20.90
2022-10-11T10:41:14.807Z,21.10
2022-10-11T10:43:45.567Z,21.30
2022-10-11T10:46:37.098Z,21.40
2022-10-11T10:49:51.855Z,21.60
2022-10-11T10:52:43.180Z,21.90
2022-10-11T10:55:39.712Z,21.90
2022-10-11T10:58:13.990Z,21.80
2022-10-11T11:01:19.260Z,21.90
2022-10-11T11:03:52.177Z,21.90
2022-10-11T11:06:34.190Z,22.00
2022-10-11T11:09:20.188Z,21.80
2022-10-11T11:12:40.644Z,22.00
2022-10-11T11:15:23.795Z,22.10
2022-10-11T11:18:13.493Z,22.00
2022-10-11T11:20:53.145Z,21.90
2022-10-11T11:23:20.530Z,22.10
2022-10-11T11:26:03.508Z,21.90
2022-10-11T11:28:52.950Z,21.80
2022-10-11T11:31:38.785Z,21.90
2022-10-11T11:34:37.966Z,22.00
2022-10-11T11:37:27.242Z,22.00
2022-10-11T11:39:59.663Z,21.90
2022-10-11T11:42:39.464Z,22.00
2022-10-11T11:45:21.483Z,21.90
2022-10-11T11:48:02.079Z,21.90
2022-10-11T11:50:36.931Z,22.20
2022-10-11T11:53:14.636Z,22.10
2022-10-11T11:55:55.972Z,22.10
2022-10-11T11:58:45.251Z,22.10
2022-10-11T12:01:48.522Z,22.50
2022-10-11T12:04:21.808Z,22.70
2022-10-11T12:07:22.395Z,22.60
2022-10-11T12:09:54.513Z,22.50
2022-10-11T12:12:33.310Z,22.50
2022-10-11T12:15:09.721Z,22.60
2022-10-11T12:17:55.981Z,22.60
2022-10-11T12:20:27.360Z,22.70
2022-10-11T12:23:00.058Z,22.60
2022-10-11T12:25:28.428Z,22.60
2022-10-11T12:28:00.990Z,22.90
2022-10-11T12:30:47.038Z,23.00
2022-10-11T12:33:32.830Z,22.80
2022-10-11T12:36:07.538Z,22.90
2022-10-11T12:38:39.916Z,22.80
2022-10-11T12:41:09.967Z,23.00
2022-10-11T12:44:07.705Z,23.20
2022-10-11T12:47:26.269Z,23.10
2022-10-11T12:50:10.254Z,23.00
2022-10-11T12:53:19.343Z,23.20
2022-10-11T12:55:59.992Z,22.80
2022-10-11T12:58:38.771Z,22.70
2022-10-11T13:01:14.058Z,22.90
2022-10-11T13:04:12.191Z,22.90
2022-10-11T13:06:46.399Z,22.90
2022-10-11T13:09:30.697Z,22.90
2022-10-11T13:12:17.992Z,23.10
2022-10-11T13:15:04.329Z,22.90
2022-10-11T13:17:38.382Z,22.90
2022-10-11T13:20:17.234Z,22.90
2022-10-11T13:22:55.209Z,23.10
2022-10-11T13:25:28.706Z,23.20
2022-10-11T13:27:59.469Z,23.20
2022-10-11T13:30:34.215Z,23.10
2022-10-11T13:33:05.897Z,23.10
2022-10-11T13:35:36.653Z,22.80
2022-10-11T13:38:08.229Z,22.90
2022-10-11T13:40:37.473Z,22.90
2022-10-11T13:43:06.035Z,23.00
2022-10-11T13:45:36.834Z,22.90
2022-10-11T13:48:04.993Z,22.80
2022-10-11T13:50:34.344Z,22.80
2022-10-11T13:53:04.746Z,23.00
2022-10-11T13:55:47.303Z,22.90
2022-10-11T13:58:36.655Z,23.10
2022-10-11T14:01:16.560Z,23.20
2022-10-11T14:03:53.522Z,23.10
2022-10-11T14:06:21.261Z,23.10
2022-10-11T14:08:50.747Z,23.10
2022-10-11T14:11:36.099Z,23.20
2022-10-11T14:14:31.231Z,23.10
2022-10-11T14:17:23.063Z,23.20
2022-10-11T14:20:15.523Z,23.00
2022-10-11T14:22:43.601Z,23.00
2022-10-11T14:25:11.669Z,23.10
2022-10-11T14:27:39.784Z,22.90
2022-10-11T14:30:25.549Z,23.00
2022-10-11T14:32:57.917Z,23.00
2022-10-11T14:35:30.977Z,23.10
2022-10-11T14:37:59.193Z,22.90
2022-10-11T14:40:29.945Z,22.90
2022-10-11T14:42:57.732Z,23.10
2022-10-11T14:45:25.387Z,22.90
2022-10-11T14:47:52.799Z,22.70
2022-10-11T14:50:25.996Z,22.70
2022-10-11T14:52:53.895Z,22.80
2022-10-11T14:55:21.696Z,22.70
2022-10-11T14:57:49.154Z,22.70
2022-10-11T15:00:26.118Z,22.80
2022-10-11T15:02:54.819Z,22.80
2022-10-11T15:05:27.689Z,22.90
2022-10-11T15:07:58.010Z,22.90
2022-10-11T15:10:43.623Z,22.90
2022-10-11T15:13:11.022Z,22.90
2022-10-11T15:15:41.217Z,22.70
2022-10-11T15:18:12.600Z,22.80
2022-10-11T15:20:42.896Z,22.80
2022-10-11T15:23:11.443Z,22.70
2022-10-11T15:25:40.768Z,22.80
2022-10-11T15:28:11.241Z,22.60
2022-10-11T15:30:41.585Z,22.50
2022-10-11T15:33:09.409Z,22.40
2022-10-11T15:35:36.871Z,22.40
2022-10-11T15:38:04.346Z,22.40
2022-10-11T15:40:35.372Z,22.40
2022-10-11T15:43:03.529Z,22.50
2022-10-11T15:45:31.038Z,22.50
2022-10-11T15:47:58.591Z,22.50
2022-10-11T15:50:34.774Z,22.40
2022-10-11T15:53:04.275Z,22.40
2022-10-11T15:55:34.094Z,22.40
2022-10-11T15:58:02.077Z,22.10
2022-10-11T16:00:30.207Z,21.90
2022-10-11T16:02:59.085Z,21.70
2022-10-11T16:05:28.321Z,21.60
2022-10-11T16:07:55.760Z,21.60
2022-10-11T16:10:23.306Z,21.40
2022-10-11T16:12:50.697Z,21.30
2022-10-11T16:15:18.157Z,21.20
2022-10-11T16:17:46.495Z,21.10
2022-10-11T16:20:14.529Z,21.00
2022-10-11T16:22:42.058Z,20.90
2022-10-11T16:25:09.449Z,20.80
2022-10-11T16:27:36.891Z,21.00
2022-10-11T16:30:04.965Z,21.00
2022-10-11T16:32:34.347Z,20.80
2022-10-11T16:35:01.781Z,20.70
2022-10-11T16:37:30.623Z,20.50
2022-10-11T16:39:57.998Z,20.30
2022-10-11T16:42:25.552Z,20.00
2022-10-11T16:44:53.437Z,19.90
2022-10-11T16:47:21.012Z,19.80
2022-10-11T16:49:48.543Z,19.50
2022-10-11T16:52:16.129Z,19.10
2022-10-11T16:54:45.369Z,19.10
2022-10-11T16:57:14.843Z,19.00
2022-10-11T16:59:42.396Z,19.00
2022-10-11T17:02:19.282Z,18.80
2022-10-11T17:04:46.749Z,18.60
2022-10-11T17:07:14.128Z,18.90
2022-10-11T17:09:44.325Z,18.80
2022-10-11T17:12:13.746Z,18.70
2022-10-11T17:14:41.712Z,18.50
2022-10-11T17:17:10.548Z,18.30
2022-10-11T17:19:45.087Z,18.10
2022-10-11T17:22:16.636Z,17.90
2022-10-11T17:24:44.489Z,18.40
2022-10-11T17:27:12.897Z,18.20
2022-10-11T17:29:40.529Z,18.10
2022-10-11T17:32:08.603Z,18.20
2022-10-11T17:34:36.054Z,18.30
2022-10-11T17:37:03.706Z,18.40
2022-10-11T17:39:31.124Z,18.30
2022-10-11T17:42:03.255Z,18.40
2022-10-11T17:44:30.627Z,18.20
2022-10-11T17:46:58.075Z,18.10
2022-10-11T17:49:25.751Z,17.90
2022-10-11T17:51:53.174Z,18.30
2022-10-11T17:54:20.643Z,18.20
2022-10-11T17:56:48.270Z,17.80
2022-10-11T17:59:17.497Z,18.10
2022-10-11T18:01:44.888Z,18.50
2022-10-11T18:04:16.897Z,18.70
2022-10-11T18:06:46.165Z,19.00
2022-10-11T18:09:16.168Z,19.10
2022-10-11T18:11:44.150Z,19.20
2022-10-11T18:14:11.811Z,19.30
2022-10-11T18:16:39.769Z,19.10
2022-10-11T18:19:13.490Z,19.10
2022-10-11T18:21:41.676Z,19.10
2022-10-11T18:24:14.910Z,19.10
2022-10-11T18:26:43.438Z,19.10
2022-10-11T18:29:12.472Z,19.10
2022-10-11T18:31:40.402Z,19.10
2022-10-11T18:34:10.847Z,19.10
2022-10-11T18:36:38.790Z,19.00
2022-10-11T18:39:08.844Z,18.50
2022-10-11T18:41:38.790Z,18.20
2022-10-11T18:44:09.219Z,17.70
2022-10-11T18:46:36.751Z,17.20
2022-10-11T18:49:04.670Z,17.00
2022-10-11T18:51:38.276Z,16.90
2022-10-11T18:54:07.495Z,16.70
2022-10-11T18:56:36.555Z,16.90
2022-10-11T18:59:05.038Z,16.50
2022-10-11T19:01:38.248Z,16.50
2022-10-11T19:04:08.115Z,16.30
2022-10-11T19:06:41.964Z,16.40
2022-10-11T19:09:12.760Z,16.30
2022-10-11T19:11:40.704Z,16.10
2022-10-11T19:14:14.520Z,16.00
2022-10-11T19:16:45.482Z,15.80
2022-10-11T19:19:13.551Z,15.70
2022-10-11T19:21:41.296Z,15.70
2022-10-11T19:24:09.293Z,15.50
2022-10-11T19:26:39.374Z,15.50
2022-10-11T19:29:08.098Z,15.50
2022-10-11T19:31:37.165Z,15.50
2022-10-11T19:34:04.746Z,15.40
2022-10-11T19:36:36.399Z,15.50
2022-10-11T19:39:05.939Z,15.90
2022-10-11T19:41:34.165Z,16.40
2022-10-11T19:44:01.559Z,16.70
2022-10-11T19:46:50.304Z,16.90
2022-10-11T19:49:20.234Z,17.20
2022-10-11T19:51:47.647Z,17.30
2022-10-11T19:54:15.469Z,17.40
2022-10-11T19:56:43.863Z,17.40
2022-10-11T19:59:12.633Z,17.40
2022-10-11T20:01:41.212Z,17.40
2022-10-11T20:04:27.417Z,17.30
2022-10-11T20:06:58.735Z,17.30
2022-10-11T20:09:30.544Z,17.30
2022-10-11T20:11:58.567Z,17.30
2022-10-11T20:14:26.186Z,17.20
2022-10-11T20:16:53.592Z,17.20
2022-10-11T20:19:26.205Z,17.20
2022-10-11T20:21:55.244Z,17.20
2022-10-11T20:24:22.676Z,17.10
2022-10-11T20:26:50.185Z,16.80
2022-10-11T20:29:17.777Z,16.50
2022-10-11T20:31:45.140Z,16.50
2022-10-11T20:34:13.271Z,16.60
2022-10-11T20:36:40.687Z,16.70
2022-10-11T20:39:08.219Z,16.80
2022-10-11T20:41:39.812Z,16.80
2022-10-11T20:44:08.858Z,16.90
2022-10-11T20:46:38.542Z,16.90
2022-10-11T20:49:09.085Z,16.80
2022-10-11T20:51:39.217Z,16.90
2022-10-11T20:54:07.028Z,16.90
2022-10-11T20:56:35.349Z,17.00
2022-10-11T20:59:03.261Z,16.90
2022-10-11T21:01:41.796Z,16.90
2022-10-11T21:04:17.708Z,16.70
2022-10-11T21:06:45.513Z,16.60
2022-10-11T21:09:15.586Z,16.40
2022-10-11T21:11:44.697Z,16.10
2022-10-11T21:14:12.160Z,16.20
2022-10-11T21:16:39.653Z,16.30
2022-10-11T21:19:07.108Z,16.40
2022-10-11T21:21:34.907Z,16.10
2022-10-11T21:24:02.753Z,15.80
2022-10-11T21:26:31.196Z,16.00
2022-10-11T21:29:03.954Z,15.90
2022-10-11T21:31:34.318Z,16.10
2022-10-11T21:34:03.297Z,16.20
2022-10-11T21:36:30.681Z,16.20
2022-10-11T21:38:58.078Z,16.30
2022-10-11T21:41:28.991Z,16.10
2022-10-11T21:43:56.551Z,15.80
2022-10-11T21:49:18.624Z,15.30
2022-10-11T21:51:46.132Z,15.10
2022-10-11T21:54:13.535Z,15.30
2022-10-11T21:56:41.558Z,15.50
2022-10-11T21:59:12.179Z,15.60
2022-10-11T22:01:41.355Z,15.70
2022-10-11T22:04:09.325Z,15.70
2022-10-11T22:06:37.476Z,15.90
2022-10-11T22:09:05.866Z,16.00
2022-10-11T22:11:33.310Z,16.10
2022-10-11T22:14:00.686Z,16.10
2022-10-11T22:16:28.125Z,16.20
2022-10-11T22:18:55.788Z,16.20
2022-10-11T22:21:24.755Z,16.20
2022-10-11T22:23:53.921Z,16.20
2022-10-11T22:26:30.621Z,16.10
2022-10-11T22:29:00.088Z,16.10
2022-10-11T22:31:27.844Z,16.10
2022-10-11T22:34:00.160Z,15.90
2022-10-11T22:36:30.416Z,15.80
2022-10-11T22:38:58.577Z,15.80
2022-10-11T22:41:26.041Z,15.50
2022-10-11T22:43:53.455Z,15.00
2022-10-11T22:46:20.882Z,14.80
2022-10-11T22:48:48.320Z,14.90
2022-10-11T22:51:15.740Z,15.00
2022-10-11T22:53:43.091Z,14.90
2022-10-11T22:56:11.218Z,14.80
2022-10-11T22:58:38.596Z,14.70
2022-10-11T23:01:10.038Z,14.70
2022-10-11T23:03:37.580Z,14.70
2022-10-11T23:06:05.643Z,14.50
2022-10-11T23:08:33.017Z,14.60
2022-10-11T23:11:07.664Z,14.90
2022-10-11T23:13:35.710Z,15.20
2022-10-11T23:16:11.042Z,15.00
2022-10-11T23:18:38.883Z,14.80
2022-10-11T23:21:07.168Z,14.50
2022-10-11T23:23:35.030Z,14.40
2022-10-11T23:26:14.061Z,14.10
2022-10-11T23:28:42.384Z,14.20
2022-10-11T23:31:18.358Z,14.00
2022-10-11T23:33:46.315Z,13.80
2022-10-11T23:36:24.617Z,13.80
2022-10-11T23:38:56.873Z,14.10
2022-10-11T23:41:25.415Z,14.60
2022-10-11T23:43:52.835Z,14.70
2022-10-11T23:46:20.325Z,14.80
2022-10-11T23:48:48.023Z,14.80
2022-10-11T23:51:16.062Z,14.80
2022-10-11T23:53:43.590Z,15.00
2022-10-11T23:56:11.648Z,15.20
2022-10-11T23:58:39.088Z,15.10
